Time;durP1;ratioP1;P1;durP2;ratioP2;P2;SDS_P1;SDS_P2;PMS_P1;PMS_P2;Temp;Humidity;BMP_temperature;BMP_pressure;BME280_temperature;BME280_humidity;BME280_pressure;Samples;Min_cycle;Max_cycle;Signal;HPM_P1;HPM_P2
2022/03/10 00:01:29;;;;;;;11.13;7.73;;;;;;;-0.34;76.66;100036.59;8285132;28;20089;-72
2022/03/10 00:05:31;;;;;;;14.17;8.77;;;;;;;-0.36;76.70;100042.38;8273936;28;20125;-72
2022/03/10 00:09:33;;;;;;;15.60;7.72;;;;;;;-0.40;77.17;100046.47;8283340;28;20058;-72
2022/03/10 00:13:34;;;;;;;12.70;7.73;;;;;;;-0.44;77.20;100046.25;8284181;28;20136;-72
2022/03/10 00:17:36;;;;;;;12.60;7.97;;;;;;;-0.51;77.50;100042.53;8281493;28;20154;-73
2022/03/10 00:21:38;;;;;;;14.63;8.10;;;;;;;-0.55;76.92;100048.25;8283176;28;20057;-70
2022/03/10 00:25:40;;;;;;;15.00;8.13;;;;;;;-0.56;77.81;100041.41;8288986;28;20161;-73
2022/03/10 00:29:41;;;;;;;12.83;7.83;;;;;;;-0.58;77.36;100043.00;8284504;28;20801;-72
2022/03/10 00:33:43;;;;;;;13.50;8.33;;;;;;;-0.63;78.14;100052.97;8605491;23;20808;-73
2022/03/10 00:37:52;;;;;;;12.60;7.47;;;;;;;-0.68;78.19;100056.13;8263566;28;20504;-73
2022/03/10 00:41:54;;;;;;;11.63;7.83;;;;;;;-0.74;78.49;100053.22;8281272;28;20431;-73
2022/03/10 00:45:55;;;;;;;13.40;7.97;;;;;;;-0.75;78.44;100056.56;8259810;28;20058;-73
2022/03/10 00:49:56;;;;;;;12.80;7.80;;;;;;;-0.74;78.45;100055.78;8266193;28;20141;-73
2022/03/10 00:53:58;;;;;;;14.20;7.43;;;;;;;-0.78;78.28;100067.50;8265211;28;20161;-73
2022/03/10 00:57:59;;;;;;;13.27;7.40;;;;;;;-0.78;78.36;100064.06;8267983;28;20362;-73
2022/03/10 01:02:01;;;;;;;14.80;7.97;;;;;;;-0.83;78.96;100068.94;8270942;28;20148;-73
2022/03/10 01:06:03;;;;;;;13.47;8.10;;;;;;;-0.86;78.36;100071.34;8268169;28;20049;-73
2022/03/10 01:10:06;;;;;;;15.70;8.17;;;;;;;-0.85;78.94;100067.13;8283360;28;20311;-73
2022/03/10 01:14:08;;;;;;;16.27;9.43;;;;;;;-0.91;78.46;100067.66;8285069;28;20385;-73
2022/03/10 01:18:09;;;;;;;12.70;7.63;;;;;;;-0.96;78.67;100064.00;8244195;28;20141;-73
2022/03/10 01:22:11;;;;;;;11.47;8.27;;;;;;;-0.98;78.70;100070.69;8271219;28;20149;-73
2022/03/10 01:26:12;;;;;;;14.83;8.00;;;;;;;-1.04;79.13;100062.75;8262825;28;20050;-73
2022/03/10 01:30:15;;;;;;;13.27;8.57;;;;;;;-1.09;78.95;100067.56;8256978;28;20145;-73
2022/03/10 01:34:16;;;;;;;13.93;7.70;;;;;;;-1.13;78.70;100065.66;8280649;28;20754;-73
2022/03/10 01:38:18;;;;;;;15.70;8.70;;;;;;;-1.13;78.92;100067.34;8281508;28;20053;-72
2022/03/10 01:42:19;;;;;;;12.13;7.53;;;;;;;-1.20;78.88;100066.16;8265266;28;20064;-72
2022/03/10 01:46:20;;;;;;;12.53;8.30;;;;;;;-1.24;78.49;100056.59;8279075;28;20072;-72
2022/03/10 01:50:22;;;;;;;10.70;6.00;;;;;;;-1.30;79.11;100057.13;8283605;28;21474;-72
2022/03/10 01:54:26;;;;;;;12.57;7.77;;;;;;;-1.34;79.23;100055.22;8287212;28;20068;-73
2022/03/10 01:58:28;;;;;;;14.52;8.30;;;;;;;-1.35;78.94;100056.03;8280467;28;20061;-72
2022/03/10 02:02:29;;;;;;;14.27;7.65;;;;;;;-1.40;79.79;100052.38;8261754;28;20061;-73
2022/03/10 02:06:31;;;;;;;14.07;7.73;;;;;;;-1.45;79.74;100048.66;8281387;28;20046;-72
2022/03/10 02:10:34;;;;;;;16.33;8.87;;;;;;;-1.48;79.64;100042.53;8261159;28;20108;-72
2022/03/10 02:18:55;;;;;;;13.90;8.33;;;;;;;-1.49;79.46;100049.31;8282522;28;20064;-72
2022/03/10 02:22:57;;;;;;;15.13;8.23;;;;;;;-1.53;79.86;100061.00;8279211;28;20082;-72
2022/03/10 02:26:58;;;;;;;14.77;8.17;;;;;;;-1.57;79.53;100059.09;8286084;28;20059;-72
2022/03/10 02:31:00;;;;;;;13.07;8.30;;;;;;;-1.61;79.37;100061.41;8275763;28;20145;-72
2022/03/10 02:35:02;;;;;;;12.48;7.55;;;;;;;-1.65;79.99;100060.31;8287168;28;20096;-72
2022/03/10 02:39:03;;;;;;;14.10;7.90;;;;;;;-1.64;80.58;100072.25;8280458;28;20049;-72
2022/03/10 02:43:05;;;;;;;11.60;8.23;;;;;;;-1.62;80.23;100067.25;8296768;28;20060;-72
2022/03/10 02:47:06;;;;;;;12.23;7.87;;;;;;;-1.66;79.29;100065.34;8291455;28;20437;-73
2022/03/10 02:51:07;;;;;;;12.57;8.03;;;;;;;-1.70;79.91;100071.94;8281724;28;20682;-72
2022/03/10 02:55:09;;;;;;;12.93;8.67;;;;;;;-1.75;79.49;100083.53;8293724;28;20082;-72
2022/03/10 02:59:11;;;;;;;13.43;8.48;;;;;;;-1.77;78.93;100076.63;8298778;28;20711;-72
2022/03/10 03:03:13;;;;;;;14.40;8.40;;;;;;;-1.80;79.98;100074.75;8290758;28;20062;-72
2022/03/10 03:07:15;;;;;;;16.02;8.50;;;;;;;-1.83;80.12;100082.22;8283146;28;20524;-72
2022/03/10 03:11:17;;;;;;;15.07;8.07;;;;;;;-1.85;80.20;100071.97;8295526;28;20057;-72
2022/03/10 03:15:19;;;;;;;14.37;7.97;;;;;;;-1.88;80.21;100076.88;8305152;28;20111;-72
2022/03/10 03:19:20;;;;;;;12.30;7.72;;;;;;;-1.93;80.25;100070.69;8301006;28;20068;-72
2022/03/10 03:23:25;;;;;;;13.98;8.13;;;;;;;-1.94;80.33;100079.09;8303487;28;20060;-72
2022/03/10 03:27:26;;;;;;;14.13;8.40;;;;;;;-1.99;80.26;100067.78;8305584;28;20137;-72
2022/03/10 03:31:28;;;;;;;15.77;8.33;;;;;;;-2.08;80.24;100069.81;8274811;28;20437;-72
2022/03/10 03:35:31;;;;;;;14.10;8.17;;;;;;;-2.12;81.10;100067.91;8299931;28;20474;-72
2022/03/10 03:39:33;;;;;;;14.83;8.43;;;;;;;-2.11;81.16;100063.69;8301897;28;20054;-71
2022/03/10 03:43:34;;;;;;;14.93;9.07;;;;;;;-2.12;81.24;100065.34;8291052;28;20129;-72
2022/03/10 03:47:36;;;;;;;13.90;8.57;;;;;;;-2.08;81.30;100056.22;8303488;28;20484;-72
2022/03/10 03:51:38;;;;;;;14.10;8.23;;;;;;;-2.10;80.87;100061.22;8307488;28;20161;-72
2022/03/10 03:55:39;;;;;;;13.77;8.73;;;;;;;-2.08;81.50;100067.28;8291009;28;20145;-71
2022/03/10 03:59:41;;;;;;;14.90;7.82;;;;;;;-2.13;81.36;100064.47;8306700;28;20681;-71
2022/03/10 04:03:43;;;;;;;16.30;9.53;;;;;;;-2.18;81.02;100067.53;8297331;28;20056;-71
2022/03/10 04:07:44;;;;;;;15.63;8.50;;;;;;;-2.20;81.00;100072.53;8301010;28;20153;-71
2022/03/10 04:11:50;;;;;;;17.30;9.37;;;;;;;-2.24;80.67;100074.81;8297679;28;20843;-71
2022/03/10 04:15:51;;;;;;;21.60;10.55;;;;;;;-2.27;81.43;100077.19;8299465;28;20119;-71
2022/03/10 04:19:53;;;;;;;15.82;9.10;;;;;;;-2.32;81.03;100088.78;8287291;28;20412;-71
2022/03/10 04:23:54;;;;;;;19.63;10.47;;;;;;;-2.34;81.13;100082.69;8300105;28;20045;-71
2022/03/10 04:27:56;;;;;;;18.87;9.77;;;;;;;-2.35;81.83;100081.81;8280886;28;20136;-71
2022/03/10 04:31:57;;;;;;;16.50;9.70;;;;;;;-2.35;81.21;100084.38;8299679;28;20088;-71
2022/03/10 04:35:59;;;;;;;14.30;8.50;;;;;;;-2.39;81.57;100084.97;8296802;28;20060;-71
2022/03/10 04:40:01;;;;;;;15.30;8.68;;;;;;;-2.41;81.05;100091.66;8299130;28;20042;-71
2022/03/10 04:44:03;;;;;;;14.27;8.47;;;;;;;-2.41;80.46;100090.78;8300600;28;20084;-71
2022/03/10 04:48:06;;;;;;;16.53;9.27;;;;;;;-2.44;79.94;100088.94;8289986;28;20486;-71
2022/03/10 04:52:08;;;;;;;14.77;8.40;;;;;;;-2.50;79.94;100092.00;8285742;28;20726;-71
2022/03/10 04:56:09;;;;;;;13.70;8.20;;;;;;;-2.53;80.79;100090.91;8300724;28;20483;-71
2022/03/10 05:00:13;;;;;;;16.27;8.63;;;;;;;-2.54;80.85;100092.59;8297794;28;20082;-71
2022/03/10 05:04:14;;;;;;;14.63;9.00;;;;;;;-2.62;80.43;100092.94;8283015;28;20064;-71
2022/03/10 05:08:16;;;;;;;16.00;8.90;;;;;;;-2.64;81.25;100089.44;8287486;28;20218;-71
2022/03/10 05:12:17;;;;;;;16.40;8.70;;;;;;;-2.71;81.76;100090.72;8286920;28;20053;-70
2022/03/10 05:16:19;;;;;;;16.33;9.57;;;;;;;-2.75;81.58;100094.75;8271307;28;20390;-70
2022/03/10 05:20:20;;;;;;;18.10;10.17;;;;;;;-2.79;81.50;100097.03;8296811;28;20099;-71
2022/03/10 05:24:22;;;;;;;16.97;9.67;;;;;;;-2.78;81.85;100097.13;8292769;28;20148;-70
2022/03/10 05:28:23;;;;;;;17.97;9.67;;;;;;;-2.81;81.68;100096.94;8299192;28;20435;-70
2022/03/10 05:32:25;;;;;;;17.83;9.47;;;;;;;-2.78;82.35;100101.31;8298657;28;20092;-70
2022/03/10 05:36:26;;;;;;;17.20;9.13;;;;;;;-2.75;82.04;100107.47;8301681;28;20081;-70
2022/03/10 05:40:28;;;;;;;17.13;8.83;;;;;;;-2.74;82.36;100108.34;8274041;28;20573;-70
2022/03/10 05:44:29;;;;;;;16.03;9.47;;;;;;;-2.81;82.26;100107.09;8299397;28;20053;-71
2022/03/10 05:48:31;;;;;;;15.60;9.37;;;;;;;-2.81;81.23;100114.72;8288789;28;20049;-71
2022/03/10 05:52:32;;;;;;;16.17;8.73;;;;;;;-2.85;81.22;100111.91;8294102;28;20049;-71
2022/03/10 05:56:33;;;;;;;13.90;8.73;;;;;;;-2.89;81.36;100112.50;8296404;28;20062;-71
2022/03/10 06:00:35;;;;;;;17.27;9.50;;;;;;;-2.90;81.20;100111.63;8277241;28;20041;-70
2022/03/10 06:04:36;;;;;;;16.43;9.83;;;;;;;-2.88;81.15;100115.13;8296159;28;20057;-70
2022/03/10 06:08:38;;;;;;;20.17;10.37;;;;;;;-2.90;81.74;100121.78;8296574;28;20401;-70
2022/03/10 06:12:40;;;;;;;21.10;9.77;;;;;;;-2.90;81.64;100126.84;8289706;28;20431;-70
2022/03/10 06:16:41;;;;;;;19.07;9.93;;;;;;;-2.87;82.05;100118.53;8285000;28;20134;-70
2022/03/10 06:20:43;;;;;;;19.53;10.93;;;;;;;-2.84;82.01;100132.34;8291059;28;20085;-70
2022/03/10 06:24:45;;;;;;;22.03;10.37;;;;;;;-2.77;81.89;100133.56;8290236;28;20140;-70
2022/03/10 06:28:47;;;;;;;23.70;10.77;;;;;;;-2.68;80.94;100141.75;8284508;28;20057;-70
2022/03/10 06:32:48;;;;;;;16.80;9.77;;;;;;;-2.62;81.40;100144.66;8261790;28;20061;-70
2022/03/10 06:36:49;;;;;;;19.40;10.60;;;;;;;-2.56;81.26;100142.47;8277118;28;20062;-70
2022/03/10 06:40:51;;;;;;;21.63;10.93;;;;;;;-2.50;81.15;100145.41;8263812;28;20060;-70
2022/03/10 06:44:52;;;;;;;22.90;11.87;;;;;;;-2.42;81.74;100145.84;8277838;28;20053;-70
2022/03/10 06:48:54;;;;;;;16.57;10.33;;;;;;;-2.32;81.61;100142.19;8275321;28;20058;-71
2022/03/10 06:52:58;;;;;;;20.07;9.90;;;;;;;-2.17;81.03;100138.84;8277463;28;20060;-70
2022/03/10 06:56:59;;;;;;;19.93;10.77;;;;;;;-2.02;80.96;100141.38;8278595;28;20050;-71
2022/03/10 07:01:02;;;;;;;18.13;9.63;;;;;;;-1.86;80.74;100132.97;8261583;28;20355;-71
2022/03/10 07:05:04;;;;;;;19.80;9.80;;;;;;;-1.68;80.86;100135.66;8266887;28;20076;-71
2022/03/10 07:09:06;;;;;;;16.73;10.40;;;;;;;-1.45;80.23;100134.38;8282219;28;20046;-70
2022/03/10 07:13:08;;;;;;;17.13;10.37;;;;;;;-1.07;79.48;100139.91;8284077;28;20145;-71
2022/03/10 07:17:15;;;;;;;20.97;10.00;;;;;;;-0.45;78.63;100136.34;8284760;28;20115;-71
2022/03/10 07:21:21;;;;;;;16.80;10.57;;;;;;;0.05;76.50;100138.88;8273360;28;20486;-71
2022/03/10 07:25:23;;;;;;;21.17;10.93;;;;;;;0.46;75.16;100138.31;8291150;28;20453;-71
2022/03/10 07:29:24;;;;;;;14.27;9.03;;;;;;;0.71;73.44;100140.34;8287411;28;20046;-72
2022/03/10 07:33:25;;;;;;;17.13;10.30;;;;;;;1.12;72.26;100141.38;8269575;28;20450;-72
2022/03/10 07:37:27;;;;;;;16.80;10.37;;;;;;;1.48;71.47;100144.69;8287503;28;20064;-72
2022/03/10 07:41:28;;;;;;;21.67;9.10;;;;;;;1.83;70.35;100143.66;8291148;28;20587;-72
2022/03/10 07:45:30;;;;;;;15.83;10.00;;;;;;;2.20;69.49;100134.94;8283191;28;20057;-72
2022/03/10 07:49:32;;;;;;;14.43;9.90;;;;;;;2.45;68.65;100134.22;8273394;28;20052;-71
2022/03/10 07:53:36;;;;;;;20.53;9.70;;;;;;;2.68;68.24;100131.72;8277722;28;20054;-72
2022/03/10 07:57:37;;;;;;;16.07;9.90;;;;;;;2.96;67.31;100122.53;8297660;28;20145;-72
2022/03/10 08:01:39;;;;;;;17.83;9.13;;;;;;;3.33;66.48;100119.66;8285478;28;20587;-71
2022/03/10 08:05:40;;;;;;;19.40;10.00;;;;;;;3.73;65.66;100118.47;8302192;28;20668;-73
2022/03/10 08:09:42;;;;;;;18.60;10.53;;;;;;;4.17;63.62;100112.28;8297578;28;20060;-71
2022/03/10 08:13:44;;;;;;;15.00;10.00;;;;;;;4.68;61.01;100110.47;8300665;28;20050;-72
2022/03/10 08:17:45;;;;;;;16.17;8.77;;;;;;;5.18;58.30;100108.50;8295460;28;20462;-71
2022/03/10 08:21:47;;;;;;;17.93;9.67;;;;;;;5.71;56.14;100106.53;8279221;28;20081;-71
2022/03/10 08:25:49;;;;;;;13.35;8.30;;;;;;;6.21;53.33;100094.09;8278862;28;20057;-71
2022/03/10 08:29:50;;;;;;;13.23;8.70;;;;;;;6.70;50.90;100100.41;8293134;28;20643;-72
2022/03/10 08:33:52;;;;;;;13.07;8.30;;;;;;;7.06;48.64;100095.19;8294305;28;20550;-73
2022/03/10 08:37:53;;;;;;;14.10;8.48;;;;;;;7.45;47.79;100092.53;8298596;28;20109;-71
2022/03/10 08:41:56;;;;;;;14.30;8.18;;;;;;;7.79;45.36;100096.63;8294267;28;20132;-74
2022/03/10 08:45:58;;;;;;;14.60;8.07;;;;;;;8.08;44.49;100090.25;8293293;28;20065;-72
2022/03/10 08:49:59;;;;;;;13.65;8.23;;;;;;;8.37;43.91;100092.44;8278647;28;20611;-72
2022/03/10 08:54:02;;;;;;;11.90;8.03;;;;;;;8.56;42.68;100094.47;8303245;28;20053;-72
2022/03/10 08:58:03;;;;;;;12.85;8.23;;;;;;;8.78;41.96;100095.63;8290854;28;20053;-72
2022/03/10 09:02:05;;;;;;;13.43;8.52;;;;;;;8.94;41.79;100092.41;8292080;28;20061;-71
2022/03/10 09:06:09;;;;;;;15.33;8.83;;;;;;;9.06;40.76;100087.41;8298222;28;20054;-72
2022/03/10 09:10:11;;;;;;;15.02;9.57;;;;;;;9.27;40.79;100083.34;8292189;28;20128;-72
2022/03/10 09:14:13;;;;;;;13.30;8.50;;;;;;;9.53;40.77;100068.97;8287515;28;20197;-72
2022/03/10 09:18:14;;;;;;;13.57;8.63;;;;;;;9.73;39.36;100070.88;8290468;28;20125;-72
2022/03/10 09:22:17;;;;;;;14.00;9.73;;;;;;;9.97;39.39;100060.72;8292002;28;20049;-71
2022/03/10 09:26:19;;;;;;;12.70;9.27;;;;;;;10.20;39.61;100056.59;8282998;28;20050;-71
2022/03/10 09:30:20;;;;;;;15.18;9.93;;;;;;;10.47;38.03;100062.88;8275074;28;20120;-71
2022/03/10 09:34:22;;;;;;;11.87;9.00;;;;;;;10.67;38.43;100056.09;8279848;28;20089;-71
2022/03/10 09:38:23;;;;;;;12.57;9.73;;;;;;;10.82;36.68;100051.00;8283575;28;20707;-71
2022/03/10 09:42:31;;;;;;;14.70;9.88;;;;;;;10.99;36.92;100045.88;8281492;28;20510;-72
2022/03/10 09:46:32;;;;;;;14.68;10.35;;;;;;;11.05;36.55;100038.09;8279819;28;20424;-71
2022/03/10 09:50:34;;;;;;;18.40;10.30;;;;;;;11.22;36.68;100032.09;8266361;28;20091;-72
2022/03/10 09:54:35;;;;;;;14.32;10.38;;;;;;;11.50;36.07;100034.78;8268202;28;20132;-71
2022/03/10 09:58:37;;;;;;;19.00;10.60;;;;;;;11.51;35.53;100030.44;8290394;28;20042;-71
2022/03/10 10:02:42;;;;;;;19.48;10.32;;;;;;;11.54;36.00;100032.19;8293662;28;20061;-71
2022/03/10 10:07:01;;;;;;;15.75;10.45;;;;;;;11.64;35.54;100028.72;8296821;28;20054;-72
2022/03/10 10:11:02;;;;;;;17.10;10.07;;;;;;;11.87;36.19;100021.84;8285255;28;20081;-70
2022/03/10 10:15:09;;;;;;;14.90;10.05;;;;;;;12.17;35.63;100023.56;8277385;28;20096;-71
2022/03/10 10:19:17;;;;;;;15.25;11.50;;;;;;;12.43;34.23;100020.94;8293550;28;20505;-71
2022/03/10 10:23:22;;;;;;;15.27;9.77;;;;;;;12.60;34.52;100018.31;8285971;28;20682;-72
2022/03/10 10:27:32;;;;;;;16.27;11.73;;;;;;;12.93;33.85;100017.34;8284837;28;20160;-71
2022/03/10 10:31:36;;;;;;;16.80;10.45;;;;;;;12.97;33.27;100012.09;8256991;28;20069;-71
2022/03/10 10:35:40;;;;;;;15.95;10.52;;;;;;;13.37;33.66;100009.31;8282977;28;20119;-71
2022/03/10 10:39:51;;;;;;;19.90;11.95;;;;;;;13.53;32.90;100007.47;8282344;28;20156;-72
2022/03/10 10:43:57;;;;;;;13.90;10.95;;;;;;;13.57;32.42;99991.78;8266287;28;20054;-71
2022/03/10 10:48:08;;;;;;;17.67;11.95;;;;;;;13.78;31.80;99985.53;8278730;28;20084;-71
2022/03/10 10:52:11;;;;;;;15.43;12.03;;;;;;;13.95;31.74;99977.56;8267160;28;20060;-71
2022/03/10 10:56:15;;;;;;;17.38;11.93;;;;;;;14.19;32.55;99973.88;8284186;28;20058;-71
2022/03/10 11:00:17;;;;;;;19.83;12.02;;;;;;;14.53;31.58;99971.78;8276679;28;20060;-72
2022/03/10 11:04:18;;;;;;;15.68;11.43;;;;;;;14.66;30.68;99964.69;8284249;28;20060;-72
2022/03/10 11:08:22;;;;;;;19.80;12.82;;;;;;;14.77;30.38;99961.06;8284940;28;20157;-72
2022/03/10 11:12:24;;;;;;;15.15;11.85;;;;;;;14.93;30.09;99958.28;8266229;28;20060;-72
2022/03/10 11:16:26;;;;;;;17.08;12.52;;;;;;;15.08;30.52;99960.66;8273041;28;20140;-71
2022/03/10 11:20:30;;;;;;;17.67;12.98;;;;;;;15.24;30.23;99948.22;8295725;28;20837;-71
2022/03/10 11:24:44;;;;;;;17.33;12.70;;;;;;;15.31;29.63;99947.28;8274503;28;20045;-71
2022/03/10 11:28:48;;;;;;;17.13;12.95;;;;;;;15.43;30.08;99942.69;8280814;28;20050;-71
2022/03/10 11:33:00;;;;;;;18.42;12.82;;;;;;;15.62;29.10;99932.88;8273914;28;20066;-71
2022/03/10 11:37:09;;;;;;;18.80;13.05;;;;;;;15.67;29.14;99932.78;8288663;28;20450;-71
2022/03/10 11:41:10;;;;;;;15.95;12.23;;;;;;;15.78;29.15;99922.09;8296919;28;20055;-72
2022/03/10 11:45:19;;;;;;;17.90;13.67;;;;;;;15.97;28.11;99918.28;8283948;28;20061;-71
2022/03/10 11:49:21;;;;;;;16.05;12.30;;;;;;;16.14;28.23;99917.97;8280989;28;20081;-70
2022/03/10 11:53:23;;;;;;;18.57;12.73;;;;;;;16.25;27.18;99914.28;8278978;28;20141;-71
2022/03/10 11:57:24;;;;;;;14.10;11.47;;;;;;;16.24;26.56;99898.59;8281909;28;20061;-70
2022/03/10 12:01:26;;;;;;;18.03;12.47;;;;;;;16.30;26.73;99899.31;8282954;28;20291;-71
2022/03/10 12:05:58;;;;;;;15.60;11.30;;;;;;;16.54;26.21;99895.34;8292886;28;20140;-71
2022/03/10 12:10:02;;;;;;;;;;;;;;;16.56;25.50;99895.31;8297045;28;20501;-71
2022/03/10 12:14:24;;;;;;;13.35;10.85;;;;;;;16.61;25.34;99882.97;8300054;28;19983;-71
2022/03/10 12:18:30;;;;;;;17.33;11.83;;;;;;;16.82;25.37;99872.03;8291644;28;20052;-70
2022/03/10 12:22:35;;;;;;;18.30;11.57;;;;;;;16.91;25.23;99860.50;8292758;28;20084;-70
2022/03/10 12:26:40;;;;;;;15.05;12.10;;;;;;;17.09;25.03;99859.22;8292775;28;20045;-69
2022/03/10 12:30:44;;;;;;;18.48;11.75;;;;;;;17.15;24.57;99846.81;8292440;28;20061;-71
2022/03/10 12:34:46;;;;;;;16.52;12.10;;;;;;;17.14;24.62;99849.47;8291949;28;20061;-70
2022/03/10 12:38:47;;;;;;;13.07;11.38;;;;;;;17.26;24.38;99841.31;8293375;28;20156;-70
2022/03/10 12:42:49;;;;;;;14.00;11.23;;;;;;;17.34;23.90;99835.84;8301028;28;20142;-72
2022/03/10 12:46:52;;;;;;;14.27;11.25;;;;;;;17.42;24.11;99832.16;8279877;28;20813;-70
2022/03/10 12:50:54;;;;;;;13.23;11.40;;;;;;;17.43;23.84;99825.16;8300383;28;20107;-72
2022/03/10 12:54:56;;;;;;;14.80;11.13;;;;;;;17.50;24.20;99810.94;8294086;28;20049;-71
2022/03/10 12:58:58;;;;;;;15.45;11.45;;;;;;;17.52;23.65;99812.63;8295580;28;20053;-72
2022/03/10 13:02:59;;;;;;;11.27;9.43;;;;;;;17.55;22.72;99802.94;8290766;28;20053;-72
2022/03/10 13:07:01;;;;;;;11.85;9.93;;;;;;;17.52;22.88;99802.13;8298840;28;20049;-71
2022/03/10 13:11:03;;;;;;;14.07;9.50;;;;;;;17.47;23.25;99790.88;8287114;28;20045;-71
2022/03/10 13:15:09;;;;;;;14.00;8.60;;;;;;;17.55;22.50;99795.06;8285236;28;20385;-71
2022/03/10 13:19:29;;;;;;;9.07;8.07;;;;;;;17.51;22.31;99796.91;8296246;28;20604;-70
2022/03/10 13:23:31;;;;;;;11.50;9.32;;;;;;;17.49;23.32;99775.94;8280983;28;20360;-71
2022/03/10 13:27:34;;;;;;;9.88;8.55;;;;;;;17.67;22.53;99779.84;8291806;28;20050;-71
2022/03/10 13:31:35;;;;;;;11.40;8.52;;;;;;;17.61;21.83;99772.16;8280278;28;20067;-71
2022/03/10 13:35:40;;;;;;;10.40;8.53;;;;;;;17.79;22.42;99773.44;8286779;28;20165;-73
2022/03/10 13:39:49;;;;;;;12.45;8.80;;;;;;;17.76;21.80;99765.63;8290942;28;22014;-71
2022/03/10 13:43:50;;;;;;;11.23;8.50;;;;;;;17.83;22.13;99759.31;8294134;28;20584;-71
2022/03/10 13:48:01;;;;;;;10.60;8.55;;;;;;;17.85;21.95;99752.25;8266456;28;20058;-71
2022/03/10 13:52:10;;;;;;;13.47;8.77;;;;;;;17.85;21.27;99747.00;8284192;28;20049;-71
2022/03/10 13:56:12;;;;;;;10.50;7.93;;;;;;;17.83;20.82;99734.81;8279962;28;20056;-71
2022/03/10 14:00:13;;;;;;;10.23;7.57;;;;;;;17.80;21.51;99733.13;8291031;28;20760;-71
2022/03/10 14:04:17;;;;;;;9.55;7.45;;;;;;;17.81;21.37;99732.22;8301206;28;20727;-71
2022/03/10 14:08:21;;;;;;;8.90;8.00;;;;;;;17.81;21.62;99717.31;8291075;28;20061;-71
2022/03/10 14:12:26;;;;;;;11.80;8.10;;;;;;;17.87;21.54;99715.41;8298920;28;20422;-71
2022/03/10 14:16:29;;;;;;;10.93;8.27;;;;;;;17.91;21.49;99706.53;8284092;28;20057;-71
2022/03/10 14:20:45;;;;;;;9.85;7.25;;;;;;;17.93;21.77;99708.22;8286395;28;20449;-71
2022/03/10 14:24:55;;;;;;;10.27;6.88;;;;;;;17.86;20.83;99688.28;8289682;28;20058;-71
2022/03/10 14:28:56;;;;;;;8.73;6.75;;;;;;;17.89;21.58;99698.69;8290649;28;20955;-70
2022/03/10 14:32:58;;;;;;;10.73;8.07;;;;;;;17.91;20.84;99688.16;8290558;28;20195;-72
2022/03/10 14:37:00;;;;;;;9.10;7.55;;;;;;;17.90;21.14;99687.28;8287586;28;20064;-71
2022/03/10 14:41:02;;;;;;;7.40;6.63;;;;;;;17.79;20.89;99678.88;8298996;28;20041;-71
2022/03/10 14:45:04;;;;;;;9.50;6.70;;;;;;;17.71;21.18;99668.56;8285978;28;20069;-72
2022/03/10 14:49:08;;;;;;;8.40;6.32;;;;;;;17.71;21.13;99671.19;8289918;28;20054;-71
2022/03/10 14:53:10;;;;;;;8.97;6.63;;;;;;;17.72;21.72;99670.28;8295972;28;20136;-71
2022/03/10 14:57:12;;;;;;;7.78;6.45;;;;;;;17.75;20.78;99658.84;8291939;28;20117;-71
2022/03/10 15:01:15;;;;;;;8.90;5.97;;;;;;;17.62;20.71;99658.31;8262944;28;20544;-73
2022/03/10 15:05:20;;;;;;;6.50;5.68;;;;;;;17.52;20.59;99657.72;8296518;28;20045;-70
2022/03/10 15:09:21;;;;;;;7.28;5.57;;;;;;;17.49;20.97;99644.69;8289328;28;20053;-71
2022/03/10 15:13:23;;;;;;;8.27;6.60;;;;;;;17.55;20.96;99648.03;8284985;28;20115;-70
2022/03/10 15:17:24;;;;;;;7.80;6.57;;;;;;;17.52;20.90;99641.09;8288246;28;20298;-71
2022/03/10 15:21:26;;;;;;;8.13;6.70;;;;;;;17.52;21.33;99643.72;8293393;28;20128;-71
2022/03/10 15:25:32;;;;;;;9.53;7.10;;;;;;;17.50;21.29;99635.88;8294290;28;20510;-71
2022/03/10 15:29:33;;;;;;;7.95;6.45;;;;;;;17.48;21.92;99631.59;8287009;28;20299;-71
2022/03/10 15:33:35;;;;;;;8.53;6.17;;;;;;;17.36;21.08;99635.41;8291803;28;20053;-71
2022/03/10 15:37:37;;;;;;;7.03;5.95;;;;;;;17.41;21.79;99638.75;8292317;28;20061;-71
2022/03/10 15:41:41;;;;;;;5.78;5.20;;;;;;;17.47;21.73;99635.97;8299476;28;20042;-71
2022/03/10 15:45:43;;;;;;;5.75;5.15;;;;;;;17.57;22.38;99630.44;8281237;28;20159;-71
2022/03/10 15:49:45;;;;;;;6.15;4.00;;;;;;;18.21;21.45;99636.44;8299934;28;20092;-70
2022/03/10 15:53:46;;;;;;;2.95;2.65;;;;;;;22.17;18.16;99623.38;8294167;28;20066;-71
2022/03/10 15:57:49;;;;;;;3.83;3.13;;;;;;;24.86;15.91;99614.25;8298075;28;20056;-71
2022/03/10 16:01:50;;;;;;;4.88;3.50;;;;;;;25.76;14.82;99617.59;8291249;28;20603;-72
2022/03/10 16:05:52;;;;;;;;;;;;;;;24.73;15.08;99608.81;8270672;28;20064;-72
2022/03/10 16:09:54;;;;;;;2.83;2.53;;;;;;;23.96;16.08;99601.72;8291646;28;19932;-73
2022/03/10 16:13:56;;;;;;;;;;;;;;;22.85;17.17;99607.69;8289488;28;20493;-72
2022/03/10 16:17:58;;;;;;;3.92;2.42;;;;;;;22.72;17.27;99606.56;8288310;28;19925;-73
2022/03/10 16:21:59;;;;;;;4.13;2.80;;;;;;;23.16;17.10;99606.94;8289503;28;20057;-72
2022/03/10 16:26:01;;;;;;;;;;;;;;;22.96;17.22;99609.75;8287960;28;20072;-73
2022/03/10 16:30:04;;;;;;;2.92;2.72;;;;;;;21.91;17.81;99610.50;8285627;28;19925;-71
2022/03/10 16:34:05;;;;;;;3.13;2.80;;;;;;;20.79;18.57;99607.56;8273405;28;20470;-71
2022/03/10 16:38:07;;;;;;;4.75;3.60;;;;;;;19.99;19.47;99613.50;8293420;28;20053;-72
2022/03/10 16:42:09;;;;;;;3.97;3.67;;;;;;;18.99;20.57;99606.63;8294398;28;20046;-71
2022/03/10 16:46:10;;;;;;;8.52;5.57;;;;;;;17.74;22.63;99608.06;8264483;28;20057;-70
2022/03/10 16:50:12;;;;;;;5.22;4.72;;;;;;;16.83;24.06;99603.63;8288634;28;20045;-71
2022/03/10 16:54:14;;;;;;;7.37;6.20;;;;;;;16.07;24.66;99607.25;8298189;28;20065;-71
2022/03/10 16:58:16;;;;;;;4.82;3.88;;;;;;;15.52;25.14;99608.44;8292485;28;20065;-71
2022/03/10 17:02:21;;;;;;;4.00;3.60;;;;;;;15.10;25.58;99604.06;8280815;28;20065;-72
2022/03/10 17:06:24;;;;;;;3.72;3.47;;;;;;;14.77;26.36;99607.28;8283621;28;20049;-71
2022/03/10 17:10:26;;;;;;;5.68;4.40;;;;;;;14.43;26.78;99612.19;8287243;28;20653;-70
2022/03/10 17:14:28;;;;;;;4.53;3.83;;;;;;;14.09;27.63;99614.47;8286220;28;20053;-72
2022/03/10 17:18:30;;;;;;;6.47;4.40;;;;;;;13.80;28.00;99609.66;8268460;28;20058;-72
2022/03/10 17:22:31;;;;;;;5.50;3.78;;;;;;;13.57;28.82;99610.84;8282601;28;20057;-71
2022/03/10 17:26:35;;;;;;;4.90;3.20;;;;;;;13.37;28.44;99612.84;8278355;28;20068;-71
2022/03/10 17:30:56;;;;;;;3.30;2.63;;;;;;;13.14;28.97;99610.50;8281275;28;20065;-71
2022/03/10 17:34:58;;;;;;;3.40;3.10;;;;;;;13.01;28.62;99616.72;8286189;28;20283;-71
2022/03/10 17:38:59;;;;;;;4.88;3.53;;;;;;;12.84;29.30;99618.63;8286268;28;20049;-72
2022/03/10 17:43:01;;;;;;;3.57;3.03;;;;;;;12.61;30.18;99618.84;8270362;28;20049;-71
2022/03/10 17:47:03;;;;;;;2.90;2.70;;;;;;;12.42;30.19;99620.75;8280582;28;21413;-70
2022/03/10 17:51:05;;;;;;;2.63;2.13;;;;;;;12.29;30.41;99621.72;8284701;28;20096;-71
2022/03/10 17:55:11;;;;;;;4.10;2.70;;;;;;;12.18;30.50;99623.53;8285794;28;20127;-71
2022/03/10 17:59:13;;;;;;;2.55;2.35;;;;;;;12.07;30.69;99627.09;8285796;28;20156;-71
2022/03/10 18:03:14;;;;;;;3.17;2.45;;;;;;;11.91;31.34;99622.84;8281657;28;20062;-72
2022/03/10 18:07:16;;;;;;;4.45;3.22;;;;;;;11.70;31.45;99629.00;8286823;28;20080;-71
2022/03/10 18:11:17;;;;;;;6.85;4.22;;;;;;;11.51;31.96;99627.38;8284244;28;20050;-72
2022/03/10 18:15:19;;;;;;;5.38;4.00;;;;;;;11.32;32.66;99625.72;8282010;28;20068;-72
2022/03/10 18:19:21;;;;;;;4.45;3.03;;;;;;;11.10;33.24;99623.16;8284996;28;20053;-72
2022/03/10 18:23:22;;;;;;;3.28;2.97;;;;;;;10.93;32.95;99614.53;8266474;28;20061;-71
2022/03/10 18:27:24;;;;;;;9.15;5.70;;;;;;;10.80;33.64;99608.53;8285669;28;20045;-72
2022/03/10 18:31:26;;;;;;;14.18;7.72;;;;;;;10.73;33.56;99603.31;8283610;28;20493;-71
2022/03/10 18:35:30;;;;;;;;;;;;;;;10.64;33.43;99608.56;8289479;28;20066;-72
2022/03/10 18:39:31;;;;;;;14.55;8.43;;;;;;;10.46;34.32;99605.09;8286072;28;19936;-71
2022/03/10 18:43:33;;;;;;;14.10;7.13;;;;;;;10.34;34.42;99609.41;8283874;28;20089;-71
2022/03/10 18:47:34;;;;;;;9.02;5.43;;;;;;;10.22;34.43;99603.34;8279540;28;20064;-71